Nearby METAR Reports

 

KCFV - Coffeyville, Kansas, USA
Distance from station: ENE 93mi, 150km
Updated: Sat, 05-25-2019 5:52pm CDT
Clear
Clear
 Wind from S
Wind: S 13 mph , 20 km/h, Gust: 20 mph , 31 km/h
Temperature: 81°F , 27°C
Heat Index: 84°F , 29°C
Dew Point: 68°F , 20°C
Humidity: 66%
Barometer: 1014.2 hPa
Clouds: Clear
Visibility: 10 miles , 16 km
2019/05/25 22:52 KCFV 252252Z AUTO 18011G17KT 10SM CLR 27/20 A2995 RMK AO2 SLP137 T02720200
KIDP - Independence, Kansas, USA
Distance from station: NE 86mi, 138km
Updated: Sat, 05-25-2019 5:55pm CDT
Overcast
Overcast
 Wind from S
Wind: S 13 mph , 20 km/h
Temperature: 81°F , 27°C
Heat Index: 85°F , 29°C
Dew Point: 72°F , 22°C
Humidity: 74%
Barometer: 1014.9 hPa
Clouds: Overcast
Visibility: 10 miles , 16 km
Cloud details: Mostly cloudy 3800 ft
Mostly cloudy 4300 ft
Overcast 4900 ft
2019/05/25 22:55 KIDP 252255Z AUTO 17011KT 10SM BKN038 BKN043 OVC049 27/22 A2997 RMK AO2 T02730219
KIAB - Mcconnell Afb, Kansas, USA
Distance from station: N 84mi, 135km
Updated: Sat, 05-25-2019 5:56pm CDT
Mostly cloudy
Mostly cloudy
 Wind from ESE
Wind: ESE 8 mph , 13 km/h
Temperature: 77°F , 25°C
Dew Point: 72°F , 22°C
Humidity: 83%
Barometer: 1013.5 hPa
Clouds: Mostly cloudy
Visibility: 10 miles , 16 km
Cloud details: Few Clouds 2100 ft
Partly cloudy 2600 ft
Mostly cloudy 3700 ft
Mostly cloudy 5500 ft
2019/05/25 22:56 KIAB 252256Z AUTO 12007KT 10SM FEW021 SCT026 BKN037 BKN055 25/22 A2993 RMK AO2 SLP128 T02510216 $
 
KICT - Wichita, Kansas, USA
Distance from station: NNW 88mi, 142km
Updated: Sat, 05-25-2019 5:53pm CDT
Overcast
Overcast
 Wind from SSE
Wind: SSE 12 mph , 19 km/h
Temperature: 79°F , 26°C
Dew Point: 70°F , 21°C
Humidity: 74%
Barometer: 1012.9 hPa
Clouds: Overcast
Visibility: 10 miles , 16 km
Cloud details: Few Clouds 2400 ft
Mostly cloudy 4600 ft
Overcast 5500 ft
2019/05/25 22:53 KICT 252253Z 15010KT 10SM FEW024 BKN046 OVC055 26/21 A2991 RMK AO2 SLP118 T02560211
KAAO - Wichita/Jabara, Kansas, USA
Distance from station: N 93mi, 149km
Updated: Sat, 05-25-2019 5:54pm CDT
Overcast
Overcast
 Wind from SE
Wind: SE 7 mph , 11 km/h
Temperature: 75°F , 24°C
Dew Point: 72°F , 22°C
Humidity: 89%
Barometer: 1013.5 hPa
Clouds: Overcast
Visibility: 10 miles , 16 km
Cloud details: Mostly cloudy 3000 ft
Overcast 4200 ft
2019/05/25 22:54 KAAO 252254Z AUTO 14006KT 10SM BKN030 OVC042 24/22 A2993 RMK AO2 SLP125 T02390217 $
KWLD - Winfield/Arkansa, Kansas, USA
Distance from station: N 52mi, 84km
Updated: Sat, 05-25-2019 5:54pm CDT
Mostly cloudy
Mostly cloudy
 Wind from SSE
Wind: SSE 9 mph , 15 km/h
Temperature: 79°F , 26°C
Dew Point: 72°F , 22°C
Humidity: 79%
Barometer: 1013.9 hPa
Clouds: Mostly cloudy
Visibility: 10 miles , 16 km
Cloud details: Few Clouds 3400 ft
Partly cloudy 4000 ft
Mostly cloudy 5000 ft
2019/05/25 22:54 KWLD 252254Z AUTO 15008KT 10SM FEW034 SCT040 BKN050 26/22 A2994 RMK AO2 SLP128 T02610222
 
KAVK - Alva, Oklahoma, USA
Distance from station: WNW 94mi, 152km
Updated: Sat, 05-25-2019 5:55pm CDT
Mostly cloudy
Mostly cloudy
 Wind from S
Wind: S 9 mph , 15 km/h
Temperature: 75°F , 24°C
Dew Point: 73°F , 23°C
Humidity: 94%
Barometer: 1012.9 hPa
Clouds: Mostly cloudy
Visibility: 10 miles , 16 km
Cloud details: Few Clouds 4600 ft
Partly cloudy 6500 ft
Mostly cloudy 7500 ft
2019/05/25 22:55 KAVK 252255Z AUTO 17008KT 10SM FEW046 SCT065 BKN075 24/23 A2991 RMK AO2 LTG DSNT ALQDS
KBVO - Bartlesville, Oklahoma, USA
Distance from station: ENE 61mi, 98km
Updated: Sat, 05-25-2019 5:53pm CDT
Few Clouds
Few Clouds
 Wind from S
Wind: S 10 mph , 17 km/h
Temperature: 82°F , 28°C
Heat Index: 86°F , 30°C
Dew Point: 70°F , 21°C
Humidity: 66%
Barometer: 1014.6 hPa
Clouds: Few Clouds
Visibility: 10 miles , 16 km
Cloud details: Few Clouds 4100 ft
2019/05/25 22:53 KBVO 252253Z AUTO 18009KT 10SM FEW041 28/21 A2996 RMK AO2 SLP134 T02780211
KBKN - Blackwell, Oklahoma, USA
Distance from station: NW 29mi, 47km
Updated: Sat, 05-25-2019 5:55pm CDT
Clear
Clear
 Wind from SE
Wind: SE 9 mph , 15 km/h
Temperature: 81°F , 27°C
Heat Index: 87°F , 31°C
Dew Point: 75°F , 24°C
Humidity: 84%
Barometer: 1013.5 hPa
Clouds: Clear
Visibility: 10 miles , 16 km
2019/05/25 22:55 KBKN 252255Z AUTO 14008KT 10SM CLR 27/24 A2993 RMK AO2
 
KGCM - Claremore, Oklahoma, USA
Distance from station: E 86mi, 138km
Updated: Sat, 05-25-2019 5:55pm CDT
Partly cloudy
Partly cloudy
 Wind from S
Wind: S 10 mph , 17 km/h, Gust: 18 mph , 30 km/h
Temperature: 81°F , 27°C
Heat Index: 83°F , 28°C
Dew Point: 66°F , 19°C
Humidity: 62%
Barometer: 1015.6 hPa
Clouds: Partly cloudy
Visibility: 10 miles , 16 km
Cloud details: Partly cloudy 4200 ft
2019/05/25 22:55 KGCM 252255Z AUTO 18009G16KT 10SM SCT042 27/19 A2999 RMK AO2
KCQB - Chandler, Oklahoma, USA
Distance from station: SSE 50mi, 80km
Updated: Sat, 05-25-2019 5:55pm CDT
Partly cloudy
Partly cloudy
 Wind from SSE
Wind: SSE 12 mph , 19 km/h, Gust: 21 mph , 33 km/h
Temperature: 82°F , 28°C
Heat Index: 86°F , 30°C
Dew Point: 70°F , 21°C
Humidity: 66%
Barometer: 1013.9 hPa
Clouds: Partly cloudy
Visibility: 10 miles , 16 km
Cloud details: Partly cloudy 4200 ft
2019/05/25 22:55 KCQB 252255Z AUTO 16010G18KT 10SM SCT042 28/21 A2994 RMK AO2 T02770209
KCUH - Cushing, Oklahoma, USA
Distance from station: SSE 35mi, 57km
Updated: Sat, 05-25-2019 5:55pm CDT
Partly cloudy
Partly cloudy
 Wind from SSE
Wind: SSE 12 mph , 19 km/h, Gust: 17 mph , 28 km/h
Temperature: 81°F , 27°C
Heat Index: 85°F , 29°C
Dew Point: 70°F , 21°C
Humidity: 70%
Barometer: 1013.5 hPa
Clouds: Partly cloudy
Visibility: 10 miles , 16 km
Cloud details: Partly cloudy 3500 ft
Partly cloudy 4000 ft
Partly cloudy 4800 ft
2019/05/25 22:55 KCUH 252255Z AUTO 16010G15KT 10SM SCT035 SCT040 SCT048 27/21 A2993 RMK AO2 T02740209
 
KRQO - El Reno Muni, Oklahoma, USA
Distance from station: SW 85mi, 137km
Updated: Sat, 05-25-2019 5:55pm CDT
Haze, Partly cloudy
Haze, Partly cloudy
 Wind from SSE
Wind: SSE 15 mph , 24 km/h
Temperature: 79°F , 26°C
Dew Point: 72°F , 22°C
Humidity: 79%
Barometer: 1013.2 hPa
Summary: Haze
Clouds: Partly cloudy
Visibility: 5 miles , 8 km
Cloud details: Partly cloudy 4800 ft
Partly cloudy 6000 ft
Partly cloudy 8000 ft
2019/05/25 22:55 KRQO 252255Z AUTO 16013KT 5SM HZ SCT048 SCT060 SCT080 26/22 A2992 RMK AO2 LTG DSNT W T02610221
KEND - Enid/Vance Afb, Oklahoma, USA
Distance from station: W 50mi, 81km
Updated: Sat, 05-25-2019 5:56pm CDT
Light drizzle, Few clouds
Light drizzle, Few clouds
 Wind from SSE
Wind: SSE 15 mph , 24 km/h
Temperature: 81°F , 27°C
Heat Index: 87°F , 31°C
Dew Point: 75°F , 24°C
Humidity: 84%
Barometer: 1012.2 hPa
Summary: Light Drizzle
Clouds: Few Clouds
Visibility: 10 miles , 16 km
Cloud details: Few Clouds 8000 ft
2019/05/25 22:56 KEND 252256Z AUTO 15013KT 10SM -DZ FEW080 27/24 A2989 RMK AO2 SLP598 P0000 T02650241 $
KWDG - Enid/Woodring, Oklahoma, USA
Distance from station: W 42mi, 67km
Updated: Sat, 05-25-2019 5:45pm CDT
Overcast
Overcast
 Wind from SSE
Wind: SSE 10 mph , 17 km/h
Temperature: 81°F , 27°C
Heat Index: 85°F , 29°C
Dew Point: 72°F , 22°C
Humidity: 74%
Barometer: 1012.5 hPa
Clouds: Overcast
Visibility: 10 miles , 16 km
Cloud details: Partly cloudy 6000 ft
Mostly cloudy 13000 ft
Overcast 20000 ft
2019/05/25 22:45 KWDG 252245Z 16009KT 10SM SCT060 BKN130 OVC200 27/22 A2990
 
KGOK - Guthrie, Oklahoma, USA
Distance from station: SSW 44mi, 71km
Updated: Sat, 05-25-2019 5:53pm CDT
Clear
Clear
 Wind from SSE
Wind: SSE 12 mph , 19 km/h, Gust: 22 mph , 35 km/h
Temperature: 82°F , 28°C
Heat Index: 86°F , 30°C
Dew Point: 70°F , 21°C
Humidity: 66%
Barometer: 1012.9 hPa
Clouds: Clear
Visibility: 10 miles , 16 km
2019/05/25 22:53 KGOK 252253Z AUTO 16010G19KT 10SM CLR 28/21 A2991 RMK AO2 SLP121 T02780211
KOUN - Norman/Westheime, Oklahoma, USA
Distance from station: SSW 84mi, 136km
Updated: Sat, 05-25-2019 5:45pm CDT
Partly cloudy
Partly cloudy
 Wind from SE
Wind: SE 20 mph , 31 km/h, Gust: 24 mph , 39 km/h
Temperature: 82°F , 28°C
Heat Index: 86°F , 30°C
Dew Point: 70°F , 21°C
Humidity: 66%
Barometer: 1012.9 hPa
Clouds: Partly cloudy
Visibility: 10 miles , 16 km
Cloud details: Partly cloudy 3400 ft
Partly cloudy 4700 ft
Partly cloudy 8000 ft
2019/05/25 22:45 KOUN 252245Z 14017G21KT 10SM SCT034 SCT047 SCT080 28/21 A2991
KOKC - Oklahoma City, Oklahoma, USA
Distance from station: SSW 78mi, 126km
Updated: Sat, 05-25-2019 5:52pm CDT
Overcast
Overcast
 Wind from SSE
Wind: SSE 16 mph , 26 km/h, Gust: 23 mph , 37 km/h
Temperature: 81°F , 27°C
Heat Index: 85°F , 29°C
Dew Point: 72°F , 22°C
Humidity: 74%
Barometer: 1013.2 hPa
Clouds: Overcast
Visibility: 10 miles , 16 km
Cloud details: Partly cloudy 3200 ft
Mostly cloudy 7500 ft
Overcast 25000 ft
2019/05/25 22:52 KOKC 252252Z 16014G20KT 10SM SCT032 BKN075 OVC250 27/22 A2992 RMK AO2 SLP120 T02720217
 
KPWA - Okla City/Wiley, Oklahoma, USA
Distance from station: SSW 70mi, 113km
Updated: Sat, 05-25-2019 5:53pm CDT
Few Clouds
Few Clouds
 Wind from S
Wind: S 21 mph , 33 km/h, Gust: 26 mph , 43 km/h
Temperature: 82°F , 28°C
Heat Index: 86°F , 30°C
Dew Point: 70°F , 21°C
Humidity: 66%
Barometer: 1013.2 hPa
Clouds: Few Clouds
Visibility: 10 miles , 16 km
Cloud details: Few Clouds 8000 ft
2019/05/25 22:53 KPWA 252253Z 17018G23KT 10SM FEW080 28/21 A2992 RMK AO2 SLP118 T02780211
KRCE - Okla City/Page, Oklahoma, USA
Distance from station: SW 78mi, 126km
Updated: Sat, 05-25-2019 5:55pm CDT
Partly cloudy
Partly cloudy
 Wind from S
Wind: S 17 mph , 28 km/h, Gust: 23 mph , 37 km/h
Temperature: 81°F , 27°C
Heat Index: 85°F , 29°C
Dew Point: 70°F , 21°C
Humidity: 70%
Barometer: 1013.2 hPa
Clouds: Partly cloudy
Visibility: 10 miles , 16 km
Cloud details: Partly cloudy 3300 ft
Partly cloudy 4200 ft
Partly cloudy 5000 ft
2019/05/25 22:55 KRCE 252255Z AUTO 17015G20KT 10SM SCT033 SCT042 SCT050 27/21 A2992 RMK AO2
KOKM - Okmulgee, Oklahoma, USA
Distance from station: SE 79mi, 127km
Updated: Sat, 05-25-2019 5:55pm CDT
Clear
Clear
 Wind from SSE
Wind: SSE 12 mph , 19 km/h, Gust: 23 mph , 37 km/h
Temperature: 84°F , 29°C
Heat Index: 87°F , 31°C
Dew Point: 68°F , 20°C
Humidity: 58%
Barometer: 1014.9 hPa
Clouds: Clear
Visibility: 10 miles , 16 km
2019/05/25 22:55 KOKM 252255Z AUTO 15010G20KT 10SM CLR 29/20 A2997 RMK AO2 T02880204
 
KPNC - Ponca City, Oklahoma, USA
Distance from station: N 22mi, 36km
Updated: Sat, 05-25-2019 5:53pm CDT
Clear
Clear
 
Temperature: 82°F , 28°C
Heat Index: 86°F , 30°C
Dew Point: 70°F , 21°C
Humidity: 66%
Barometer: 1012.9 hPa
Clouds: Clear
Visibility: 10 miles , 16 km
2019/05/25 22:53 KPNC 252253Z AUTO 10SM CLR 28/21 A2991 RMK AO2 SLP119 T02780206 $
KSNL - Shawnee, Oklahoma, USA
Distance from station: S 74mi, 119km
Updated: Sat, 05-25-2019 5:55pm CDT
Clear
Clear
 Wind from SSE
Wind: SSE 15 mph , 24 km/h, Gust: 24 mph , 39 km/h
Temperature: 82°F , 28°C
Heat Index: 85°F , 29°C
Dew Point: 68°F , 20°C
Humidity: 62%
Barometer: 1013.9 hPa
Clouds: Clear
Visibility: 10 miles , 16 km
2019/05/25 22:55 KSNL 252255Z AUTO 16013G21KT 10SM CLR 28/20 A2994 RMK AO2 T02780199
KSWO - Stillwater, Oklahoma, USA
Distance from station: S 17mi, 28km
Updated: Sat, 05-25-2019 5:53pm CDT
Mostly cloudy
Mostly cloudy
 Wind from SSE
Wind: SSE 16 mph , 26 km/h
Temperature: 82°F , 28°C
Heat Index: 85°F , 29°C
Dew Point: 68°F , 20°C
Humidity: 62%
Barometer: 1013.2 hPa
Clouds: Mostly cloudy
Visibility: 10 miles , 16 km
Cloud details: Mostly cloudy 3900 ft
Mostly cloudy 4700 ft
2019/05/25 22:53 KSWO 252253Z 15014KT 10SM BKN039 BKN047 28/20 A2992 RMK AO2 SLP120 T02830200
 
KTIK - Tinker Afb, Oklahoma, USA
Distance from station: SSW 72mi, 115km
Updated: Sat, 05-25-2019 5:56pm CDT
Clear
Clear
 Wind from S
Wind: S 9 mph , 15 km/h, Gust: 18 mph , 30 km/h
Temperature: 81°F , 27°C
Heat Index: 85°F , 29°C
Dew Point: 70°F , 21°C
Humidity: 70%
Barometer: 1013.5 hPa
Clouds: Clear
Visibility: 10 miles , 16 km
2019/05/25 22:56 KTIK 252256Z AUTO 17008G16KT 10SM CLR 27/21 A2993 RMK AO2 SLP131 T02710209
KTUL - Tulsa, Oklahoma, USA
Distance from station: ESE 65mi, 105km
Updated: Sat, 05-25-2019 5:53pm CDT
Overcast
Overcast
 Wind from SSE
Wind: SSE 17 mph , 28 km/h, Gust: 23 mph , 37 km/h
Temperature: 84°F , 29°C
Heat Index: 87°F , 31°C
Dew Point: 68°F , 20°C
Humidity: 58%
Barometer: 1013.9 hPa
Clouds: Overcast
Visibility: 10 miles , 16 km
Cloud details: Few Clouds 4500 ft
Overcast 25000 ft
2019/05/25 22:53 KTUL 252253Z 15015G20KT 10SM FEW045 OVC250 29/20 A2994 RMK AO2 SLP130 T02940200